createdAt,value
2017-08-10T00:00:29.418Z,97913.31
2017-08-10T00:02:58.918Z,97910.75
2017-08-10T00:05:28.469Z,97908.14
2017-08-10T00:07:58.036Z,97899.70
2017-08-10T00:10:27.695Z,97895.91
2017-08-10T00:12:56.980Z,97891.45
2017-08-10T00:15:26.413Z,97881.47
2017-08-10T00:17:56.519Z,97875.40
2017-08-10T00:20:25.950Z,97882.14
2017-08-10T00:22:55.685Z,97892.48
2017-08-10T00:25:25.132Z,97891.91
2017-08-10T00:27:54.503Z,97897.53
2017-08-10T00:30:23.963Z,97897.21
2017-08-10T00:32:53.433Z,97904.42
2017-08-10T00:35:22.761Z,97907.31
2017-08-10T00:37:51.929Z,97907.47
2017-08-10T00:40:21.576Z,97901.70
2017-08-10T00:42:50.849Z,97906.11
2017-08-10T00:45:23.054Z,97911.38
2017-08-10T00:47:54.217Z,97920.66
2017-08-10T00:50:23.802Z,97923.07
2017-08-10T00:52:53.592Z,97917.08
2017-08-10T00:55:22.943Z,97900.59
2017-08-10T00:57:52.180Z,97895.15
2017-08-10T01:00:21.692Z,97895.72
2017-08-10T01:02:51.116Z,97899.90
2017-08-10T01:05:20.767Z,97895.38
2017-08-10T01:07:50.033Z,97892.88
2017-08-10T01:10:19.463Z,97898.80
2017-08-10T01:12:48.584Z,97894.24
2017-08-10T01:15:17.869Z,97898.78
2017-08-10T01:17:47.986Z,97897.77
2017-08-10T01:20:17.277Z,97902.98
2017-08-10T01:22:46.850Z,97924.09
2017-08-10T01:25:16.097Z,97922.78
2017-08-10T01:27:45.710Z,97920.69
2017-08-10T01:30:15.208Z,97909.50
2017-08-10T01:32:44.736Z,97904.61
2017-08-10T01:35:14.395Z,97913.41
2017-08-10T01:37:43.593Z,97914.27
2017-08-10T01:40:12.955Z,97934.34
2017-08-10T01:42:42.446Z,97940.41
2017-08-10T01:45:11.696Z,97939.78
2017-08-10T01:47:41.203Z,97935.50
2017-08-10T01:50:10.396Z,97938.77
2017-08-10T01:52:40.082Z,97931.17
2017-08-10T01:55:09.441Z,97921.41
2017-08-10T01:57:39.002Z,97923.89
2017-08-10T02:00:08.802Z,97916.84
2017-08-10T02:02:38.253Z,97924.94
2017-08-10T02:05:07.851Z,97921.13
2017-08-10T02:07:37.057Z,97916.12
2017-08-10T02:10:06.594Z,97902.45
2017-08-10T02:12:36.025Z,97888.74
2017-08-10T02:15:06.432Z,97870.79
2017-08-10T02:17:36.247Z,97872.18
2017-08-10T02:20:05.809Z,97875.94
2017-08-10T02:22:35.640Z,97885.51
2017-08-10T02:25:05.417Z,97892.05
2017-08-10T02:27:35.313Z,97891.53
2017-08-10T02:30:04.706Z,97894.38
2017-08-10T02:32:33.894Z,97894.86
2017-08-10T02:35:03.156Z,97903.95
2017-08-10T02:37:32.287Z,97896.08
2017-08-10T02:40:01.398Z,97897.30
2017-08-10T02:42:31.388Z,97899.59
2017-08-10T02:45:00.659Z,97901.84
2017-08-10T02:47:30.488Z,97902.02
2017-08-10T02:49:59.701Z,97895.55
2017-08-10T02:52:29.023Z,97889.94
2017-08-10T02:54:58.231Z,97885.09
2017-08-10T02:57:27.890Z,97882.44
2017-08-10T02:59:57.427Z,97882.30
2017-08-10T03:02:26.828Z,97884.83
2017-08-10T03:04:56.305Z,97892.37
2017-08-10T03:07:25.439Z,97893.70
2017-08-10T03:09:54.864Z,97907.34
2017-08-10T03:12:24.329Z,97921.48
2017-08-10T03:14:53.863Z,97926.98
2017-08-10T03:17:23.324Z,97926.41
2017-08-10T03:19:52.421Z,97908.23
2017-08-10T03:22:22.088Z,97897.98
2017-08-10T03:24:51.474Z,97894.33
2017-08-10T03:27:20.446Z,97910.67
2017-08-10T03:29:49.843Z,97917.86
2017-08-10T03:32:19.536Z,97913.30
2017-08-10T03:34:48.666Z,97905.53
2017-08-10T03:37:18.560Z,97889.11
2017-08-10T03:39:47.679Z,97871.22
2017-08-10T03:42:17.354Z,97879.78
2017-08-10T03:44:46.517Z,97871.02
2017-08-10T03:47:15.774Z,97880.41
2017-08-10T03:49:45.499Z,97869.39
2017-08-10T03:52:15.370Z,97890.41
2017-08-10T03:54:44.472Z,97895.45
2017-08-10T03:57:13.700Z,97901.36
2017-08-10T03:59:43.854Z,97892.91
2017-08-10T04:02:13.072Z,97882.83
2017-08-10T04:04:42.749Z,97882.86
2017-08-10T04:07:12.308Z,97880.64
2017-08-10T04:09:41.360Z,97887.15
2017-08-10T04:12:11.383Z,97895.23
2017-08-10T04:14:38.817Z,97907.62
2017-08-10T04:17:06.248Z,97902.44
2017-08-10T04:19:33.658Z,97904.67
2017-08-10T04:22:01.099Z,97899.06
2017-08-10T04:24:28.556Z,97894.77
2017-08-10T04:26:55.982Z,97905.32
2017-08-10T04:29:23.423Z,97897.20
2017-08-10T04:31:50.827Z,97898.61
2017-08-10T04:34:18.243Z,97895.83
2017-08-10T04:36:45.662Z,97900.56
2017-08-10T04:39:13.165Z,97897.00
2017-08-10T04:41:40.607Z,97888.63
2017-08-10T04:44:08.030Z,97886.73
2017-08-10T04:46:35.458Z,97891.68
2017-08-10T04:49:02.916Z,97894.17
2017-08-10T04:51:30.324Z,97897.77
2017-08-10T04:53:57.788Z,97901.00
2017-08-10T04:56:25.712Z,97902.13
2017-08-10T04:58:53.279Z,97911.53
2017-08-10T05:01:20.941Z,97913.69
2017-08-10T05:03:48.355Z,97906.56
2017-08-10T05:06:15.835Z,97899.11
2017-08-10T05:08:43.411Z,97901.03
2017-08-10T05:11:10.823Z,97895.83
2017-08-10T05:13:38.279Z,97899.34
2017-08-10T05:16:05.713Z,97898.73
2017-08-10T05:18:33.161Z,97901.17
2017-08-10T05:21:00.582Z,97899.81
2017-08-10T05:23:28.157Z,97895.66
2017-08-10T05:25:55.583Z,97896.70
2017-08-10T05:28:22.996Z,97900.21
2017-08-10T05:30:50.428Z,97903.14
2017-08-10T05:33:18.056Z,97908.83
2017-08-10T05:35:45.487Z,97916.81
2017-08-10T05:38:12.919Z,97914.73
2017-08-10T05:40:40.356Z,97915.20
2017-08-10T05:43:07.791Z,97917.38
2017-08-10T05:45:35.231Z,97920.98
2017-08-10T05:48:02.652Z,97919.70
2017-08-10T05:50:30.038Z,97917.04
2017-08-10T05:52:57.475Z,97914.07
2017-08-10T05:55:24.878Z,97910.39
2017-08-10T05:57:52.356Z,97913.20
2017-08-10T06:00:19.772Z,97913.92
2017-08-10T06:02:47.181Z,97906.32
2017-08-10T06:05:14.656Z,97912.23
2017-08-10T06:07:42.083Z,97918.19
2017-08-10T06:10:09.516Z,97917.72
2017-08-10T06:12:37.805Z,97911.35
2017-08-10T06:15:05.551Z,97901.94
2017-08-10T06:17:33.016Z,97881.67
2017-08-10T06:20:00.442Z,97881.55
2017-08-10T06:22:27.941Z,97879.73
2017-08-10T06:24:55.362Z,97885.77
2017-08-10T06:27:22.787Z,97892.65
2017-08-10T06:29:50.221Z,97896.52
2017-08-10T06:32:17.664Z,97901.84
2017-08-10T06:34:45.401Z,97902.09
2017-08-10T06:37:12.821Z,97901.28
2017-08-10T06:39:40.535Z,97918.95
2017-08-10T06:42:07.941Z,97915.19
2017-08-10T06:44:35.534Z,97915.19
2017-08-10T06:47:02.962Z,97919.42
2017-08-10T06:49:30.396Z,97925.55
2017-08-10T06:51:58.012Z,97926.08
2017-08-10T06:54:25.620Z,97926.29
2017-08-10T06:56:53.127Z,97929.25
2017-08-10T06:59:20.586Z,97929.36
2017-08-10T07:01:48.003Z,97927.16
2017-08-10T07:04:15.482Z,97922.42
2017-08-10T07:06:42.955Z,97915.30
2017-08-10T07:09:10.406Z,97908.89
2017-08-10T07:11:37.842Z,97911.09
2017-08-10T07:14:05.271Z,97906.75
2017-08-10T07:16:32.706Z,97914.58
2017-08-10T07:19:00.245Z,97935.09
2017-08-10T07:21:27.717Z,97937.35
2017-08-10T07:23:55.180Z,97945.66
2017-08-10T07:26:22.631Z,97945.55
2017-08-10T07:28:50.066Z,97938.19
2017-08-10T07:31:17.486Z,97933.67
2017-08-10T07:33:45.192Z,97930.82
2017-08-10T07:36:12.602Z,97924.73
2017-08-10T07:38:40.003Z,97925.19
2017-08-10T07:41:07.446Z,97927.14
2017-08-10T07:43:35.015Z,97926.43
2017-08-10T07:46:02.471Z,97923.66
2017-08-10T07:48:29.892Z,97925.36
2017-08-10T07:50:57.324Z,97927.33
2017-08-10T07:53:24.810Z,97929.76
2017-08-10T07:55:52.216Z,97929.80
2017-08-10T07:58:19.764Z,97931.59
2017-08-10T08:00:47.201Z,97931.02
2017-08-10T08:03:14.662Z,97930.58
2017-08-10T08:05:42.086Z,97925.19
2017-08-10T08:08:09.505Z,97922.06
2017-08-10T08:10:36.947Z,97928.11
2017-08-10T08:13:04.490Z,97929.91
2017-08-10T08:15:31.935Z,97919.92
2017-08-10T08:18:00.260Z,97913.45
2017-08-10T08:20:27.667Z,97921.81
2017-08-10T08:22:55.371Z,97921.00
2017-08-10T08:25:22.815Z,97929.00
2017-08-10T08:27:50.332Z,97935.77
2017-08-10T08:30:17.768Z,97941.94
2017-08-10T08:32:45.159Z,97949.52
2017-08-10T08:35:12.636Z,97949.87
2017-08-10T08:37:40.058Z,97955.10
2017-08-10T08:40:07.508Z,97960.19
2017-08-10T08:42:34.971Z,97966.39
2017-08-10T08:45:02.669Z,97964.58
2017-08-10T08:47:30.150Z,97966.46
2017-08-10T08:49:57.990Z,97962.34
2017-08-10T08:52:25.552Z,97965.63
2017-08-10T08:54:53.011Z,97967.05
2017-08-10T08:57:20.426Z,97966.06
2017-08-10T08:59:47.862Z,97966.03
2017-08-10T09:02:15.488Z,97972.33
2017-08-10T09:04:42.955Z,97982.78
2017-08-10T09:07:10.371Z,97984.87
2017-08-10T09:09:37.796Z,97985.34
2017-08-10T09:12:05.324Z,97977.52
2017-08-10T09:14:33.605Z,97966.75
2017-08-10T09:17:01.038Z,97964.42
2017-08-10T09:19:28.457Z,97966.23
2017-08-10T09:21:55.880Z,97976.16
2017-08-10T09:24:23.308Z,97977.94
2017-08-10T09:26:50.734Z,97981.83
2017-08-10T09:29:18.165Z,97977.33
2017-08-10T09:31:45.611Z,97982.23
2017-08-10T09:34:13.036Z,97992.94
2017-08-10T09:36:40.471Z,97991.72
2017-08-10T09:39:07.941Z,97993.96
2017-08-10T09:41:35.441Z,97995.16
2017-08-10T09:44:02.886Z,97988.67
2017-08-10T09:46:30.308Z,97991.05
2017-08-10T09:48:57.850Z,98004.09
2017-08-10T09:51:25.265Z,98006.34
2017-08-10T09:53:52.652Z,98006.14
2017-08-10T09:56:20.146Z,97998.03
2017-08-10T09:58:47.608Z,97990.58
2017-08-10T10:01:15.040Z,97992.81
2017-08-10T10:03:42.453Z,98002.88
2017-08-10T10:06:09.886Z,98002.31
2017-08-10T10:08:37.326Z,97990.30
2017-08-10T10:11:04.786Z,97990.74
2017-08-10T10:13:32.248Z,97992.01
2017-08-10T10:15:59.782Z,97996.88
2017-08-10T10:18:27.198Z,97995.15
2017-08-10T10:20:54.607Z,97995.39
2017-08-10T10:23:22.060Z,97997.81
2017-08-10T10:25:49.490Z,97988.48
2017-08-10T10:28:17.023Z,97988.73
2017-08-10T10:30:44.451Z,97982.52
2017-08-10T10:33:11.870Z,97998.66
2017-08-10T10:35:39.316Z,97996.29
2017-08-10T10:38:06.741Z,97997.72
2017-08-10T10:40:34.157Z,97998.58
2017-08-10T10:43:01.653Z,98019.02
2017-08-10T10:45:29.075Z,98017.91
2017-08-10T10:47:56.491Z,98028.33
2017-08-10T10:50:24.004Z,98031.47
2017-08-10T10:52:51.441Z,98027.80
2017-08-10T10:55:18.868Z,98034.05
2017-08-10T10:57:46.284Z,98028.07
2017-08-10T11:00:13.738Z,98031.84
2017-08-10T11:02:41.150Z,98024.53
2017-08-10T11:05:08.574Z,98019.72
2017-08-10T11:07:36.033Z,98017.16
2017-08-10T11:10:03.453Z,98012.94
2017-08-10T11:12:30.858Z,98019.67
2017-08-10T11:14:58.282Z,98017.98
2017-08-10T11:17:25.691Z,98023.66
2017-08-10T11:19:53.135Z,98022.89
2017-08-10T11:22:20.563Z,98019.07
2017-08-10T11:24:48.045Z,98026.36
2017-08-10T11:27:15.448Z,98032.55
2017-08-10T11:29:42.852Z,98033.20
2017-08-10T11:32:10.279Z,98025.25
2017-08-10T11:34:37.705Z,98023.81
2017-08-10T11:37:05.123Z,98019.28
2017-08-10T11:39:32.619Z,98028.77
2017-08-10T11:42:00.069Z,98043.78
2017-08-10T11:44:27.603Z,98045.08
2017-08-10T11:46:54.947Z,98046.53
2017-08-10T11:49:22.404Z,98051.14
2017-08-10T11:51:49.862Z,98057.24
2017-08-10T11:54:17.288Z,98056.41
2017-08-10T11:56:44.763Z,98039.30
2017-08-10T11:59:12.175Z,98034.34
2017-08-10T12:01:39.614Z,98040.96
2017-08-10T12:04:07.048Z,98047.11
2017-08-10T12:06:34.536Z,98053.30
2017-08-10T12:09:01.939Z,98046.98
2017-08-10T12:11:29.390Z,98055.89
2017-08-10T12:13:56.859Z,98057.95
2017-08-10T12:16:24.286Z,98053.81
2017-08-10T12:18:51.723Z,98050.30
2017-08-10T12:21:19.126Z,98049.17
2017-08-10T12:23:46.553Z,98044.98
2017-08-10T12:26:13.984Z,98047.70
2017-08-10T12:28:41.429Z,98056.53
2017-08-10T12:31:08.907Z,98058.06
2017-08-10T12:33:36.306Z,98067.42
2017-08-10T12:36:04.485Z,98071.78
2017-08-10T12:38:32.233Z,98064.00
2017-08-10T12:40:59.697Z,98064.07
2017-08-10T12:43:27.122Z,98057.30
2017-08-10T12:45:54.532Z,98060.05
2017-08-10T12:48:21.983Z,98072.33
2017-08-10T12:50:49.485Z,98069.92
2017-08-10T12:53:16.952Z,98075.64
2017-08-10T12:55:44.362Z,98088.37
2017-08-10T12:58:11.770Z,98086.94
2017-08-10T13:00:39.215Z,98097.67
2017-08-10T13:03:06.915Z,98084.29
2017-08-10T13:05:34.339Z,98087.64
2017-08-10T13:08:02.370Z,98092.54
2017-08-10T13:10:29.800Z,98098.02
2017-08-10T13:12:57.415Z,98102.22
2017-08-10T13:15:24.863Z,98102.27
2017-08-10T13:17:52.309Z,98098.55
2017-08-10T13:20:19.894Z,98092.03
2017-08-10T13:22:47.409Z,98097.44
2017-08-10T13:25:14.835Z,98096.23
2017-08-10T13:27:42.288Z,98086.92
2017-08-10T13:30:09.711Z,98085.97
2017-08-10T13:32:37.150Z,98086.84
2017-08-10T13:35:04.592Z,98084.31
2017-08-10T13:37:32.032Z,98080.80
2017-08-10T13:39:59.506Z,98069.94
2017-08-10T13:42:26.943Z,98073.66
2017-08-10T13:44:54.452Z,98064.37
2017-08-10T13:47:21.898Z,98052.83
2017-08-10T13:49:49.384Z,98042.34
2017-08-10T13:52:16.823Z,98045.30
2017-08-10T13:54:44.256Z,98054.19
2017-08-10T13:57:11.708Z,98054.34
2017-08-10T13:59:39.995Z,98059.76
2017-08-10T14:02:07.604Z,98058.79
2017-08-10T14:04:35.101Z,98058.37
2017-08-10T14:07:02.511Z,98058.86
2017-08-10T14:09:29.954Z,98054.29
2017-08-10T14:11:57.375Z,98046.53
2017-08-10T14:14:24.772Z,98058.91
2017-08-10T14:16:52.214Z,98059.06
2017-08-10T14:19:19.632Z,98057.11
2017-08-10T14:21:47.071Z,98050.80
2017-08-10T14:24:14.474Z,98043.86
2017-08-10T14:26:41.900Z,98046.12
2017-08-10T14:29:09.473Z,98034.58
2017-08-10T14:31:36.871Z,98031.77
2017-08-10T14:34:04.339Z,98022.84
2017-08-10T14:36:31.756Z,98022.86
2017-08-10T14:38:59.212Z,98020.67
2017-08-10T14:41:26.613Z,98023.17
2017-08-10T14:43:54.051Z,98023.34
2017-08-10T14:46:21.604Z,98014.98
2017-08-10T14:48:49.008Z,98016.88
2017-08-10T14:51:16.607Z,98008.45
2017-08-10T14:53:44.066Z,98009.73
2017-08-10T14:56:11.480Z,98010.67
2017-08-10T14:58:38.903Z,98013.09
2017-08-10T15:01:06.374Z,98024.64
2017-08-10T15:03:33.858Z,98030.52
2017-08-10T15:06:01.346Z,98027.20
2017-08-10T15:08:28.781Z,98027.25
2017-08-10T15:10:56.400Z,98024.48
2017-08-10T15:13:24.040Z,98024.53
2017-08-10T15:15:51.482Z,98023.27
2017-08-10T15:18:18.949Z,98013.09
2017-08-10T15:20:46.401Z,98015.14
2017-08-10T15:23:13.827Z,98010.27
2017-08-10T15:25:41.240Z,98008.15
2017-08-10T15:28:08.699Z,98007.27
2017-08-10T15:30:36.114Z,98018.83
2017-08-10T15:33:03.728Z,98021.95
2017-08-10T15:35:31.129Z,98007.52
2017-08-10T15:37:58.582Z,98005.68
2017-08-10T15:40:26.010Z,97998.95
2017-08-10T15:42:54.528Z,97982.75
2017-08-10T15:45:21.969Z,97965.20
2017-08-10T15:47:49.628Z,97968.82
2017-08-10T15:50:18.232Z,97973.20
2017-08-10T16:04:20.676Z,97983.47
2017-08-10T16:06:48.712Z,97984.77
2017-08-10T16:09:16.324Z,97980.77
2017-08-10T16:11:45.257Z,97977.02
2017-08-10T16:14:13.140Z,97989.17
2017-08-10T16:16:40.740Z,98004.23
2017-08-10T16:19:08.800Z,98008.91
2017-08-10T16:21:36.924Z,98025.88
2017-08-10T16:24:05.631Z,98045.05
2017-08-10T16:26:33.663Z,98044.94
2017-08-10T16:29:01.796Z,98036.73
2017-08-10T16:37:14.449Z,98016.05
2017-08-10T17:14:12.505Z,98007.66
2017-08-10T17:16:40.341Z,98023.80
2017-08-10T17:19:08.150Z,98031.74
2017-08-10T17:21:36.057Z,98036.36
2017-08-10T17:24:04.524Z,98033.41
2017-08-10T17:26:32.188Z,98044.31
2017-08-10T17:28:59.959Z,98049.84
2017-08-10T17:31:27.564Z,98055.91
2017-08-10T17:33:55.222Z,98055.84
2017-08-10T17:36:23.060Z,98049.14
2017-08-10T17:38:50.857Z,98052.64
2017-08-10T17:41:18.695Z,98044.49
2017-08-10T17:43:48.215Z,98020.98
2017-08-10T18:29:45.174Z,98022.70
